sensor_id;sensor_type;location;lat;lon;timestamp;P1;durP1;ratioP1;P2;durP2;ratioP2
64820;SDS011;51256;55.654;37.264;2022-07-19T00:01:22;5.72;;;2.33;;
64820;SDS011;51256;55.654;37.264;2022-07-19T00:03:48;2.47;;;1.65;;
64820;SDS011;51256;55.654;37.264;2022-07-19T00:06:13;3.33;;;1.65;;
64820;SDS011;51256;55.654;37.264;2022-07-19T00:08:39;3.15;;;1.67;;
64820;SDS011;51256;55.654;37.264;2022-07-19T00:11:04;2.20;;;1.27;;
64820;SDS011;51256;55.654;37.264;2022-07-19T00:13:30;6.28;;;1.80;;
64820;SDS011;51256;55.654;37.264;2022-07-19T00:15:56;3.03;;;1.98;;
64820;SDS011;51256;55.654;37.264;2022-07-19T00:18:22;3.38;;;1.83;;
64820;SDS011;51256;55.654;37.264;2022-07-19T00:20:47;3.63;;;2.10;;
64820;SDS011;51256;55.654;37.264;2022-07-19T00:23:13;3.45;;;2.35;;
64820;SDS011;51256;55.654;37.264;2022-07-19T00:25:38;5.15;;;2.05;;
64820;SDS011;51256;55.654;37.264;2022-07-19T00:28:04;3.17;;;1.83;;
64820;SDS011;51256;55.654;37.264;2022-07-19T00:30:30;3.67;;;1.75;;
64820;SDS011;51256;55.654;37.264;2022-07-19T00:32:55;5.43;;;1.80;;
64820;SDS011;51256;55.654;37.264;2022-07-19T00:35:21;3.33;;;2.00;;
64820;SDS011;51256;55.654;37.264;2022-07-19T00:37:46;4.57;;;2.38;;
64820;SDS011;51256;55.654;37.264;2022-07-19T00:40:12;3.25;;;2.20;;
64820;SDS011;51256;55.654;37.264;2022-07-19T00:42:38;4.03;;;2.38;;
64820;SDS011;51256;55.654;37.264;2022-07-19T00:45:05;3.88;;;2.50;;
64820;SDS011;51256;55.654;37.264;2022-07-19T00:47:31;4.22;;;2.33;;
64820;SDS011;51256;55.654;37.264;2022-07-19T00:49:57;3.50;;;2.30;;
64820;SDS011;51256;55.654;37.264;2022-07-19T00:52:22;8.80;;;2.30;;
64820;SDS011;51256;55.654;37.264;2022-07-19T00:54:51;2.67;;;1.80;;
64820;SDS011;51256;55.654;37.264;2022-07-19T00:57:18;5.93;;;2.35;;
64820;SDS011;51256;55.654;37.264;2022-07-19T00:59:44;5.13;;;2.25;;
64820;SDS011;51256;55.654;37.264;2022-07-19T01:02:12;4.57;;;1.95;;
64820;SDS011;51256;55.654;37.264;2022-07-19T01:04:38;3.85;;;2.05;;
64820;SDS011;51256;55.654;37.264;2022-07-19T01:07:03;4.05;;;2.15;;
64820;SDS011;51256;55.654;37.264;2022-07-19T01:09:29;4.25;;;2.08;;
64820;SDS011;51256;55.654;37.264;2022-07-19T01:11:55;4.55;;;1.70;;
64820;SDS011;51256;55.654;37.264;2022-07-19T01:14:21;3.80;;;1.73;;
64820;SDS011;51256;55.654;37.264;2022-07-19T01:16:47;3.17;;;2.10;;
64820;SDS011;51256;55.654;37.264;2022-07-19T01:19:13;4.97;;;2.00;;
64820;SDS011;51256;55.654;37.264;2022-07-19T01:21:39;3.92;;;1.77;;
64820;SDS011;51256;55.654;37.264;2022-07-19T01:24:05;3.28;;;2.00;;
64820;SDS011;51256;55.654;37.264;2022-07-19T01:26:30;8.90;;;2.05;;
64820;SDS011;51256;55.654;37.264;2022-07-19T01:28:56;4.82;;;1.98;;
64820;SDS011;51256;55.654;37.264;2022-07-19T01:31:22;5.70;;;1.83;;
64820;SDS011;51256;55.654;37.264;2022-07-19T01:33:47;9.90;;;2.17;;
64820;SDS011;51256;55.654;37.264;2022-07-19T01:36:13;5.60;;;2.10;;
64820;SDS011;51256;55.654;37.264;2022-07-19T01:38:39;4.28;;;1.77;;
64820;SDS011;51256;55.654;37.264;2022-07-19T01:41:05;3.08;;;1.63;;
64820;SDS011;51256;55.654;37.264;2022-07-19T01:43:31;3.35;;;1.90;;
64820;SDS011;51256;55.654;37.264;2022-07-19T01:45:57;3.47;;;1.95;;
64820;SDS011;51256;55.654;37.264;2022-07-19T01:48:23;3.47;;;1.95;;
64820;SDS011;51256;55.654;37.264;2022-07-19T01:50:49;4.70;;;2.15;;
64820;SDS011;51256;55.654;37.264;2022-07-19T01:53:15;2.95;;;1.52;;
64820;SDS011;51256;55.654;37.264;2022-07-19T01:55:40;3.42;;;1.80;;
64820;SDS011;51256;55.654;37.264;2022-07-19T01:58:06;4.35;;;1.80;;
64820;SDS011;51256;55.654;37.264;2022-07-19T02:00:31;4.22;;;2.10;;
64820;SDS011;51256;55.654;37.264;2022-07-19T02:02:57;6.55;;;1.80;;
64820;SDS011;51256;55.654;37.264;2022-07-19T02:05:23;6.80;;;1.67;;
64820;SDS011;51256;55.654;37.264;2022-07-19T02:07:48;11.40;;;2.80;;
64820;SDS011;51256;55.654;37.264;2022-07-19T02:10:14;3.80;;;1.90;;
64820;SDS011;51256;55.654;37.264;2022-07-19T02:12:40;4.20;;;1.80;;
64820;SDS011;51256;55.654;37.264;2022-07-19T02:15:05;4.32;;;1.98;;
64820;SDS011;51256;55.654;37.264;2022-07-19T02:17:32;4.82;;;1.90;;
64820;SDS011;51256;55.654;37.264;2022-07-19T02:19:58;2.28;;;1.67;;
64820;SDS011;51256;55.654;37.264;2022-07-19T02:22:23;3.15;;;2.10;;
64820;SDS011;51256;55.654;37.264;2022-07-19T02:24:49;6.57;;;2.20;;
64820;SDS011;51256;55.654;37.264;2022-07-19T02:27:14;4.38;;;1.73;;
64820;SDS011;51256;55.654;37.264;2022-07-19T02:29:40;3.45;;;1.67;;
64820;SDS011;51256;55.654;37.264;2022-07-19T02:32:05;3.75;;;1.80;;
64820;SDS011;51256;55.654;37.264;2022-07-19T02:34:31;3.25;;;1.92;;
64820;SDS011;51256;55.654;37.264;2022-07-19T02:36:57;2.38;;;1.60;;
64820;SDS011;51256;55.654;37.264;2022-07-19T02:39:23;2.33;;;1.38;;
64820;SDS011;51256;55.654;37.264;2022-07-19T02:41:48;3.28;;;1.42;;
64820;SDS011;51256;55.654;37.264;2022-07-19T02:44:14;2.20;;;1.42;;
64820;SDS011;51256;55.654;37.264;2022-07-19T02:46:39;5.25;;;1.67;;
64820;SDS011;51256;55.654;37.264;2022-07-19T02:49:05;5.90;;;1.90;;
64820;SDS011;51256;55.654;37.264;2022-07-19T02:51:30;2.75;;;1.63;;
64820;SDS011;51256;55.654;37.264;2022-07-19T02:53:56;4.45;;;1.60;;
64820;SDS011;51256;55.654;37.264;2022-07-19T02:56:21;2.33;;;1.70;;
64820;SDS011;51256;55.654;37.264;2022-07-19T02:58:47;2.40;;;1.58;;
64820;SDS011;51256;55.654;37.264;2022-07-19T03:01:12;11.65;;;1.70;;
64820;SDS011;51256;55.654;37.264;2022-07-19T03:03:38;3.97;;;1.80;;
64820;SDS011;51256;55.654;37.264;2022-07-19T03:06:10;4.25;;;1.67;;
64820;SDS011;51256;55.654;37.264;2022-07-19T03:08:36;2.92;;;1.27;;
64820;SDS011;51256;55.654;37.264;2022-07-19T03:11:02;3.58;;;1.58;;
64820;SDS011;51256;55.654;37.264;2022-07-19T03:13:29;3.50;;;1.80;;
64820;SDS011;51256;55.654;37.264;2022-07-19T03:15:54;1.90;;;1.10;;
64820;SDS011;51256;55.654;37.264;2022-07-19T03:18:20;3.72;;;1.90;;
64820;SDS011;51256;55.654;37.264;2022-07-19T03:20:45;3.05;;;1.40;;
64820;SDS011;51256;55.654;37.264;2022-07-19T03:23:11;2.70;;;1.60;;
64820;SDS011;51256;55.654;37.264;2022-07-19T03:25:36;4.78;;;1.70;;
64820;SDS011;51256;55.654;37.264;2022-07-19T03:28:02;2.92;;;1.65;;
64820;SDS011;51256;55.654;37.264;2022-07-19T03:30:28;3.40;;;1.40;;
64820;SDS011;51256;55.654;37.264;2022-07-19T03:32:53;3.70;;;1.75;;
64820;SDS011;51256;55.654;37.264;2022-07-19T03:35:19;1.85;;;1.10;;
64820;SDS011;51256;55.654;37.264;2022-07-19T03:37:45;4.88;;;1.30;;
64820;SDS011;51256;55.654;37.264;2022-07-19T03:40:11;5.40;;;1.60;;
64820;SDS011;51256;55.654;37.264;2022-07-19T03:42:37;3.72;;;1.58;;
64820;SDS011;51256;55.654;37.264;2022-07-19T03:45:03;2.50;;;1.50;;
64820;SDS011;51256;55.654;37.264;2022-07-19T03:47:29;2.35;;;1.35;;
64820;SDS011;51256;55.654;37.264;2022-07-19T03:49:55;1.92;;;1.35;;
64820;SDS011;51256;55.654;37.264;2022-07-19T03:52:21;2.65;;;1.67;;
64820;SDS011;51256;55.654;37.264;2022-07-19T03:54:47;4.07;;;1.67;;
64820;SDS011;51256;55.654;37.264;2022-07-19T03:57:12;6.00;;;1.90;;
64820;SDS011;51256;55.654;37.264;2022-07-19T03:59:38;4.32;;;1.65;;
64820;SDS011;51256;55.654;37.264;2022-07-19T04:02:03;2.70;;;1.70;;
64820;SDS011;51256;55.654;37.264;2022-07-19T04:04:29;2.83;;;1.75;;
64820;SDS011;51256;55.654;37.264;2022-07-19T04:06:54;3.17;;;1.40;;
64820;SDS011;51256;55.654;37.264;2022-07-19T04:09:20;3.75;;;1.67;;
64820;SDS011;51256;55.654;37.264;2022-07-19T04:11:45;5.55;;;1.98;;
64820;SDS011;51256;55.654;37.264;2022-07-19T04:14:11;2.47;;;1.60;;
64820;SDS011;51256;55.654;37.264;2022-07-19T04:16:36;3.08;;;1.77;;
64820;SDS011;51256;55.654;37.264;2022-07-19T04:19:02;2.20;;;1.40;;
64820;SDS011;51256;55.654;37.264;2022-07-19T04:21:27;2.17;;;1.30;;
64820;SDS011;51256;55.654;37.264;2022-07-19T04:23:53;3.72;;;1.80;;
64820;SDS011;51256;55.654;37.264;2022-07-19T04:26:18;3.28;;;1.40;;
64820;SDS011;51256;55.654;37.264;2022-07-19T04:28:44;3.03;;;1.50;;
64820;SDS011;51256;55.654;37.264;2022-07-19T04:31:09;2.53;;;1.80;;
64820;SDS011;51256;55.654;37.264;2022-07-19T04:33:35;4.43;;;2.03;;
64820;SDS011;51256;55.654;37.264;2022-07-19T04:36:00;7.00;;;1.98;;
64820;SDS011;51256;55.654;37.264;2022-07-19T04:38:26;2.97;;;1.10;;
64820;SDS011;51256;55.654;37.264;2022-07-19T04:40:51;1.58;;;1.10;;
64820;SDS011;51256;55.654;37.264;2022-07-19T04:43:17;2.25;;;1.20;;
64820;SDS011;51256;55.654;37.264;2022-07-19T04:45:42;3.08;;;1.63;;
64820;SDS011;51256;55.654;37.264;2022-07-19T04:48:10;2.67;;;1.17;;
64820;SDS011;51256;55.654;37.264;2022-07-19T04:50:36;2.83;;;1.48;;
64820;SDS011;51256;55.654;37.264;2022-07-19T04:53:02;1.65;;;0.90;;
64820;SDS011;51256;55.654;37.264;2022-07-19T04:55:27;2.60;;;1.80;;
64820;SDS011;51256;55.654;37.264;2022-07-19T04:57:53;3.35;;;1.30;;
64820;SDS011;51256;55.654;37.264;2022-07-19T05:00:18;3.33;;;1.58;;
64820;SDS011;51256;55.654;37.264;2022-07-19T05:02:44;4.93;;;1.80;;
64820;SDS011;51256;55.654;37.264;2022-07-19T05:05:10;2.40;;;1.58;;
64820;SDS011;51256;55.654;37.264;2022-07-19T05:07:36;2.22;;;1.40;;
64820;SDS011;51256;55.654;37.264;2022-07-19T05:10:02;2.00;;;1.40;;
64820;SDS011;51256;55.654;37.264;2022-07-19T05:12:29;3.05;;;1.48;;
64820;SDS011;51256;55.654;37.264;2022-07-19T05:14:55;2.72;;;1.42;;
64820;SDS011;51256;55.654;37.264;2022-07-19T05:17:20;2.90;;;1.77;;
64820;SDS011;51256;55.654;37.264;2022-07-19T05:19:46;2.55;;;1.42;;
64820;SDS011;51256;55.654;37.264;2022-07-19T05:22:11;2.28;;;1.33;;
64820;SDS011;51256;55.654;37.264;2022-07-19T05:24:37;2.33;;;1.60;;
64820;SDS011;51256;55.654;37.264;2022-07-19T05:27:03;3.88;;;1.08;;
64820;SDS011;51256;55.654;37.264;2022-07-19T05:29:28;2.33;;;1.40;;
64820;SDS011;51256;55.654;37.264;2022-07-19T05:31:57;2.35;;;1.40;;
64820;SDS011;51256;55.654;37.264;2022-07-19T05:34:23;2.78;;;1.35;;
64820;SDS011;51256;55.654;37.264;2022-07-19T05:36:48;2.25;;;1.40;;
64820;SDS011;51256;55.654;37.264;2022-07-19T05:39:14;5.22;;;1.60;;
64820;SDS011;51256;55.654;37.264;2022-07-19T05:41:40;3.30;;;1.50;;
64820;SDS011;51256;55.654;37.264;2022-07-19T05:44:05;1.70;;;0.98;;
64820;SDS011;51256;55.654;37.264;2022-07-19T05:46:31;2.67;;;1.50;;
64820;SDS011;51256;55.654;37.264;2022-07-19T05:48:56;3.25;;;1.33;;
64820;SDS011;51256;55.654;37.264;2022-07-19T05:51:22;1.75;;;1.15;;
64820;SDS011;51256;55.654;37.264;2022-07-19T05:53:47;2.35;;;1.67;;
64820;SDS011;51256;55.654;37.264;2022-07-19T05:56:13;9.77;;;1.63;;
64820;SDS011;51256;55.654;37.264;2022-07-19T05:58:38;2.80;;;1.17;;
64820;SDS011;51256;55.654;37.264;2022-07-19T06:01:04;3.00;;;1.35;;
64820;SDS011;51256;55.654;37.264;2022-07-19T06:03:57;3.10;;;1.58;;
64820;SDS011;51256;55.654;37.264;2022-07-19T06:06:24;4.82;;;1.40;;
64820;SDS011;51256;55.654;37.264;2022-07-19T06:08:51;3.83;;;1.70;;
64820;SDS011;51256;55.654;37.264;2022-07-19T06:11:17;3.33;;;1.67;;
64820;SDS011;51256;55.654;37.264;2022-07-19T06:13:46;2.25;;;1.35;;
64820;SDS011;51256;55.654;37.264;2022-07-19T06:16:12;5.28;;;1.05;;
64820;SDS011;51256;55.654;37.264;2022-07-19T06:18:38;3.95;;;1.50;;
64820;SDS011;51256;55.654;37.264;2022-07-19T06:21:06;2.80;;;1.55;;
64820;SDS011;51256;55.654;37.264;2022-07-19T06:23:34;6.53;;;1.63;;
64820;SDS011;51256;55.654;37.264;2022-07-19T06:26:00;5.22;;;1.40;;
64820;SDS011;51256;55.654;37.264;2022-07-19T06:28:26;4.45;;;1.50;;
64820;SDS011;51256;55.654;37.264;2022-07-19T06:30:52;2.97;;;1.20;;
64820;SDS011;51256;55.654;37.264;2022-07-19T06:33:17;2.47;;;1.60;;
64820;SDS011;51256;55.654;37.264;2022-07-19T06:35:43;2.22;;;1.30;;
64820;SDS011;51256;55.654;37.264;2022-07-19T06:38:09;4.07;;;1.65;;
64820;SDS011;51256;55.654;37.264;2022-07-19T06:40:34;6.32;;;1.65;;
64820;SDS011;51256;55.654;37.264;2022-07-19T06:43:00;2.75;;;1.42;;
64820;SDS011;51256;55.654;37.264;2022-07-19T06:45:25;1.95;;;1.08;;
64820;SDS011;51256;55.654;37.264;2022-07-19T06:47:51;3.83;;;1.52;;
64820;SDS011;51256;55.654;37.264;2022-07-19T06:50:17;2.85;;;1.10;;
64820;SDS011;51256;55.654;37.264;2022-07-19T06:52:43;4.85;;;1.48;;
64820;SDS011;51256;55.654;37.264;2022-07-19T06:55:09;4.32;;;1.30;;
64820;SDS011;51256;55.654;37.264;2022-07-19T06:57:35;2.35;;;1.17;;
64820;SDS011;51256;55.654;37.264;2022-07-19T07:00:01;2.08;;;1.20;;
64820;SDS011;51256;55.654;37.264;2022-07-19T07:02:27;3.50;;;1.17;;
64820;SDS011;51256;55.654;37.264;2022-07-19T07:04:53;2.72;;;1.50;;
64820;SDS011;51256;55.654;37.264;2022-07-19T07:07:18;3.35;;;1.60;;
64820;SDS011;51256;55.654;37.264;2022-07-19T07:09:43;3.47;;;1.63;;
64820;SDS011;51256;55.654;37.264;2022-07-19T07:12:09;4.05;;;1.50;;
64820;SDS011;51256;55.654;37.264;2022-07-19T07:14:35;4.15;;;1.40;;
64820;SDS011;51256;55.654;37.264;2022-07-19T07:17:01;2.90;;;1.10;;
64820;SDS011;51256;55.654;37.264;2022-07-19T07:19:26;4.43;;;1.70;;
64820;SDS011;51256;55.654;37.264;2022-07-19T07:21:52;2.35;;;1.20;;
64820;SDS011;51256;55.654;37.264;2022-07-19T07:24:17;3.40;;;1.45;;
64820;SDS011;51256;55.654;37.264;2022-07-19T07:26:43;3.00;;;1.27;;
64820;SDS011;51256;55.654;37.264;2022-07-19T07:29:08;2.25;;;1.30;;
64820;SDS011;51256;55.654;37.264;2022-07-19T07:31:34;1.90;;;1.15;;
64820;SDS011;51256;55.654;37.264;2022-07-19T07:33:59;5.05;;;1.30;;
64820;SDS011;51256;55.654;37.264;2022-07-19T07:36:24;3.10;;;1.33;;
64820;SDS011;51256;55.654;37.264;2022-07-19T07:38:50;2.60;;;1.30;;
64820;SDS011;51256;55.654;37.264;2022-07-19T07:41:16;2.92;;;1.35;;
64820;SDS011;51256;55.654;37.264;2022-07-19T07:43:41;2.20;;;1.20;;
64820;SDS011;51256;55.654;37.264;2022-07-19T07:46:07;3.75;;;1.20;;
64820;SDS011;51256;55.654;37.264;2022-07-19T07:48:32;1.70;;;1.20;;
64820;SDS011;51256;55.654;37.264;2022-07-19T07:50:58;2.42;;;1.05;;
64820;SDS011;51256;55.654;37.264;2022-07-19T07:53:24;1.67;;;1.20;;
64820;SDS011;51256;55.654;37.264;2022-07-19T07:55:49;12.80;;;1.45;;
64820;SDS011;51256;55.654;37.264;2022-07-19T07:58:14;2.15;;;1.20;;
64820;SDS011;51256;55.654;37.264;2022-07-19T08:00:40;2.53;;;1.20;;
64820;SDS011;51256;55.654;37.264;2022-07-19T08:03:06;2.63;;;1.10;;
64820;SDS011;51256;55.654;37.264;2022-07-19T08:05:31;1.75;;;1.05;;
64820;SDS011;51256;55.654;37.264;2022-07-19T08:07:58;2.20;;;1.20;;
64820;SDS011;51256;55.654;37.264;2022-07-19T08:10:25;6.75;;;1.50;;
64820;SDS011;51256;55.654;37.264;2022-07-19T08:12:52;1.83;;;1.10;;
64820;SDS011;51256;55.654;37.264;2022-07-19T08:15:19;3.00;;;1.40;;
64820;SDS011;51256;55.654;37.264;2022-07-19T08:17:45;1.88;;;0.90;;
64820;SDS011;51256;55.654;37.264;2022-07-19T08:20:11;1.55;;;0.90;;
64820;SDS011;51256;55.654;37.264;2022-07-19T08:22:37;4.93;;;1.20;;
64820;SDS011;51256;55.654;37.264;2022-07-19T08:25:02;6.78;;;1.20;;
64820;SDS011;51256;55.654;37.264;2022-07-19T08:27:28;8.90;;;1.52;;
64820;SDS011;51256;55.654;37.264;2022-07-19T08:29:54;2.80;;;1.20;;
64820;SDS011;51256;55.654;37.264;2022-07-19T08:32:20;5.53;;;1.02;;
64820;SDS011;51256;55.654;37.264;2022-07-19T08:34:45;1.23;;;0.80;;
64820;SDS011;51256;55.654;37.264;2022-07-19T08:37:11;2.63;;;1.10;;
64820;SDS011;51256;55.654;37.264;2022-07-19T08:39:36;4.03;;;1.02;;
64820;SDS011;51256;55.654;37.264;2022-07-19T08:42:02;4.82;;;1.40;;
64820;SDS011;51256;55.654;37.264;2022-07-19T08:44:28;3.72;;;1.05;;
64820;SDS011;51256;55.654;37.264;2022-07-19T08:46:54;4.15;;;0.95;;
64820;SDS011;51256;55.654;37.264;2022-07-19T08:49:20;1.92;;;1.00;;
64820;SDS011;51256;55.654;37.264;2022-07-19T08:51:47;1.70;;;0.98;;
64820;SDS011;51256;55.654;37.264;2022-07-19T08:54:13;4.05;;;0.98;;
64820;SDS011;51256;55.654;37.264;2022-07-19T08:56:40;4.25;;;1.10;;
64820;SDS011;51256;55.654;37.264;2022-07-19T08:59:25;2.92;;;1.10;;
64820;SDS011;51256;55.654;37.264;2022-07-19T09:01:51;1.95;;;1.20;;
64820;SDS011;51256;55.654;37.264;2022-07-19T09:04:20;2.15;;;1.02;;
64820;SDS011;51256;55.654;37.264;2022-07-19T09:09:24;4.65;;;1.13;;
64820;SDS011;51256;55.654;37.264;2022-07-19T09:11:52;3.83;;;1.38;;
64820;SDS011;51256;55.654;37.264;2022-07-19T09:14:29;4.13;;;1.20;;
64820;SDS011;51256;55.654;37.264;2022-07-19T09:16:57;3.38;;;1.20;;
64820;SDS011;51256;55.654;37.264;2022-07-19T09:19:38;4.43;;;1.52;;
64820;SDS011;51256;55.654;37.264;2022-07-19T09:22:06;2.00;;;1.17;;
64820;SDS011;51256;55.654;37.264;2022-07-19T09:24:40;3.15;;;1.00;;
64820;SDS011;51256;55.654;37.264;2022-07-19T09:27:09;2.60;;;1.00;;
64820;SDS011;51256;55.654;37.264;2022-07-19T09:29:37;3.22;;;1.10;;
64820;SDS011;51256;55.654;37.264;2022-07-19T09:34:49;2.97;;;1.20;;
64820;SDS011;51256;55.654;37.264;2022-07-19T09:39:53;2.45;;;1.20;;
64820;SDS011;51256;55.654;37.264;2022-07-19T09:42:21;3.97;;;1.20;;
64820;SDS011;51256;55.654;37.264;2022-07-19T09:45:08;2.45;;;1.10;;
64820;SDS011;51256;55.654;37.264;2022-07-19T09:47:36;5.43;;;1.30;;
64820;SDS011;51256;55.654;37.264;2022-07-19T09:50:07;3.75;;;1.35;;
64820;SDS011;51256;55.654;37.264;2022-07-19T09:52:35;3.42;;;1.10;;
64820;SDS011;51256;55.654;37.264;2022-07-19T09:55:03;4.00;;;1.20;;
64820;SDS011;51256;55.654;37.264;2022-07-19T09:57:31;9.35;;;2.00;;
64820;SDS011;51256;55.654;37.264;2022-07-19T09:59:59;4.80;;;1.80;;
64820;SDS011;51256;55.654;37.264;2022-07-19T10:02:26;4.00;;;1.45;;
64820;SDS011;51256;55.654;37.264;2022-07-19T10:04:54;2.85;;;1.50;;
64820;SDS011;51256;55.654;37.264;2022-07-19T10:07:21;3.30;;;1.90;;
64820;SDS011;51256;55.654;37.264;2022-07-19T10:09:48;6.68;;;1.73;;
64820;SDS011;51256;55.654;37.264;2022-07-19T10:12:15;4.65;;;1.70;;
64820;SDS011;51256;55.654;37.264;2022-07-19T10:14:41;4.47;;;1.52;;
64820;SDS011;51256;55.654;37.264;2022-07-19T10:17:17;3.50;;;1.50;;
64820;SDS011;51256;55.654;37.264;2022-07-19T10:19:44;3.45;;;1.05;;
64820;SDS011;51256;55.654;37.264;2022-07-19T10:22:14;2.55;;;1.20;;
64820;SDS011;51256;55.654;37.264;2022-07-19T10:24:55;6.35;;;2.10;;
64820;SDS011;51256;55.654;37.264;2022-07-19T10:32:29;1.63;;;0.90;;
64820;SDS011;51256;55.654;37.264;2022-07-19T10:35:15;3.65;;;1.48;;
64820;SDS011;51256;55.654;37.264;2022-07-19T10:43:11;1.60;;;0.98;;
64820;SDS011;51256;55.654;37.264;2022-07-19T10:45:39;2.30;;;1.00;;
64820;SDS011;51256;55.654;37.264;2022-07-19T10:48:38;1.50;;;0.80;;
64820;SDS011;51256;55.654;37.264;2022-07-19T10:51:32;2.90;;;0.98;;
64820;SDS011;51256;55.654;37.264;2022-07-19T10:54:05;1.33;;;0.80;;
64820;SDS011;51256;55.654;37.264;2022-07-19T10:59:09;1.95;;;0.98;;
64820;SDS011;51256;55.654;37.264;2022-07-19T11:01:37;1.40;;;0.85;;
64820;SDS011;51256;55.654;37.264;2022-07-19T11:04:31;2.88;;;1.00;;
64820;SDS011;51256;55.654;37.264;2022-07-19T11:07:12;1.30;;;0.82;;
64820;SDS011;51256;55.654;37.264;2022-07-19T11:14:46;3.33;;;1.13;;
64820;SDS011;51256;55.654;37.264;2022-07-19T11:17:11;3.03;;;0.80;;
64820;SDS011;51256;55.654;37.264;2022-07-19T11:19:37;2.35;;;0.95;;
64820;SDS011;51256;55.654;37.264;2022-07-19T11:22:20;1.75;;;0.98;;
64820;SDS011;51256;55.654;37.264;2022-07-19T11:24:46;1.25;;;0.60;;
64820;SDS011;51256;55.654;37.264;2022-07-19T11:27:11;1.75;;;0.90;;
64820;SDS011;51256;55.654;37.264;2022-07-19T11:29:55;2.40;;;0.70;;
64820;SDS011;51256;55.654;37.264;2022-07-19T11:32:23;1.10;;;0.73;;
64820;SDS011;51256;55.654;37.264;2022-07-19T11:34:59;3.10;;;0.60;;
64820;SDS011;51256;55.654;37.264;2022-07-19T11:37:27;2.58;;;0.80;;
64820;SDS011;51256;55.654;37.264;2022-07-19T11:39:55;3.47;;;1.00;;
64820;SDS011;51256;55.654;37.264;2022-07-19T11:45:11;2.05;;;0.80;;
64820;SDS011;51256;55.654;37.264;2022-07-19T11:47:40;1.75;;;0.80;;
64820;SDS011;51256;55.654;37.264;2022-07-19T11:50:07;5.78;;;0.80;;
64820;SDS011;51256;55.654;37.264;2022-07-19T11:55:19;2.20;;;1.00;;
64820;SDS011;51256;55.654;37.264;2022-07-19T11:57:47;1.52;;;0.80;;
64820;SDS011;51256;55.654;37.264;2022-07-19T12:00:13;3.72;;;0.90;;
64820;SDS011;51256;55.654;37.264;2022-07-19T12:02:53;3.83;;;0.75;;
64820;SDS011;51256;55.654;37.264;2022-07-19T12:05:24;2.55;;;1.10;;
64820;SDS011;51256;55.654;37.264;2022-07-19T12:07:51;2.25;;;1.10;;
64820;SDS011;51256;55.654;37.264;2022-07-19T12:10:36;1.83;;;0.90;;
64820;SDS011;51256;55.654;37.264;2022-07-19T12:13:02;2.65;;;0.95;;
64820;SDS011;51256;55.654;37.264;2022-07-19T12:21:53;6.50;;;1.48;;
64820;SDS011;51256;55.654;37.264;2022-07-19T12:26:34;2.63;;;1.30;;
64820;SDS011;51256;55.654;37.264;2022-07-19T12:29:00;3.42;;;1.30;;
64820;SDS011;51256;55.654;37.264;2022-07-19T12:31:25;7.63;;;1.50;;
64820;SDS011;51256;55.654;37.264;2022-07-19T12:33:58;7.13;;;1.85;;
64820;SDS011;51256;55.654;37.264;2022-07-19T12:36:35;4.90;;;1.13;;
64820;SDS011;51256;55.654;37.264;2022-07-19T12:39:01;3.35;;;1.40;;
64820;SDS011;51256;55.654;37.264;2022-07-19T12:41:27;9.05;;;1.50;;
64820;SDS011;51256;55.654;37.264;2022-07-19T12:43:53;4.00;;;1.08;;
64820;SDS011;51256;55.654;37.264;2022-07-19T12:46:18;9.60;;;1.73;;
64820;SDS011;51256;55.654;37.264;2022-07-19T12:48:44;8.90;;;1.77;;
64820;SDS011;51256;55.654;37.264;2022-07-19T12:51:09;6.88;;;2.10;;
64820;SDS011;51256;55.654;37.264;2022-07-19T12:53:35;4.40;;;1.45;;
64820;SDS011;51256;55.654;37.264;2022-07-19T12:56:00;8.63;;;1.80;;
64820;SDS011;51256;55.654;37.264;2022-07-19T12:58:26;5.75;;;2.33;;
64820;SDS011;51256;55.654;37.264;2022-07-19T13:01:10;9.38;;;3.72;;
64820;SDS011;51256;55.654;37.264;2022-07-19T13:03:38;9.93;;;4.00;;
64820;SDS011;51256;55.654;37.264;2022-07-19T13:06:04;7.63;;;3.05;;
64820;SDS011;51256;55.654;37.264;2022-07-19T13:08:30;7.43;;;1.95;;
64820;SDS011;51256;55.654;37.264;2022-07-19T13:10:56;6.25;;;1.98;;
64820;SDS011;51256;55.654;37.264;2022-07-19T13:13:24;6.13;;;2.42;;
64820;SDS011;51256;55.654;37.264;2022-07-19T13:15:50;4.35;;;1.70;;
64820;SDS011;51256;55.654;37.264;2022-07-19T13:18:16;3.78;;;1.83;;
64820;SDS011;51256;55.654;37.264;2022-07-19T13:20:42;5.80;;;2.30;;
64820;SDS011;51256;55.654;37.264;2022-07-19T13:23:08;2.83;;;1.40;;
64820;SDS011;51256;55.654;37.264;2022-07-19T13:25:35;3.20;;;1.40;;
64820;SDS011;51256;55.654;37.264;2022-07-19T13:28:00;3.67;;;1.00;;
64820;SDS011;51256;55.654;37.264;2022-07-19T13:30:26;2.50;;;1.40;;
64820;SDS011;51256;55.654;37.264;2022-07-19T13:32:52;2.88;;;1.40;;
64820;SDS011;51256;55.654;37.264;2022-07-19T13:35:17;3.03;;;1.65;;
64820;SDS011;51256;55.654;37.264;2022-07-19T13:37:43;2.00;;;1.10;;
64820;SDS011;51256;55.654;37.264;2022-07-19T13:40:08;3.08;;;1.40;;
64820;SDS011;51256;55.654;37.264;2022-07-19T13:42:34;4.30;;;1.55;;
64820;SDS011;51256;55.654;37.264;2022-07-19T13:45:00;3.25;;;1.33;;
64820;SDS011;51256;55.654;37.264;2022-07-19T13:47:25;4.13;;;1.40;;
64820;SDS011;51256;55.654;37.264;2022-07-19T13:49:51;6.57;;;1.40;;
64820;SDS011;51256;55.654;37.264;2022-07-19T13:52:17;2.58;;;1.30;;
64820;SDS011;51256;55.654;37.264;2022-07-19T13:54:42;4.55;;;1.40;;
64820;SDS011;51256;55.654;37.264;2022-07-19T13:57:08;2.83;;;1.30;;
64820;SDS011;51256;55.654;37.264;2022-07-19T13:59:33;4.35;;;1.38;;
64820;SDS011;51256;55.654;37.264;2022-07-19T14:01:59;2.92;;;1.27;;
64820;SDS011;51256;55.654;37.264;2022-07-19T14:04:25;2.40;;;1.35;;
64820;SDS011;51256;55.654;37.264;2022-07-19T14:06:50;2.13;;;1.40;;
64820;SDS011;51256;55.654;37.264;2022-07-19T14:09:16;4.70;;;1.60;;
64820;SDS011;51256;55.654;37.264;2022-07-19T14:11:41;2.38;;;1.45;;
64820;SDS011;51256;55.654;37.264;2022-07-19T14:14:08;4.28;;;1.80;;
64820;SDS011;51256;55.654;37.264;2022-07-19T14:16:33;2.20;;;1.33;;
64820;SDS011;51256;55.654;37.264;2022-07-19T14:18:59;3.17;;;1.50;;
64820;SDS011;51256;55.654;37.264;2022-07-19T14:21:24;5.60;;;1.52;;
64820;SDS011;51256;55.654;37.264;2022-07-19T14:23:50;5.28;;;2.60;;
64820;SDS011;51256;55.654;37.264;2022-07-19T14:26:16;6.18;;;1.73;;
64820;SDS011;51256;55.654;37.264;2022-07-19T14:28:41;2.67;;;1.45;;
64820;SDS011;51256;55.654;37.264;2022-07-19T14:31:06;4.05;;;1.45;;
64820;SDS011;51256;55.654;37.264;2022-07-19T14:33:33;3.90;;;1.60;;
64820;SDS011;51256;55.654;37.264;2022-07-19T14:35:58;1.90;;;1.30;;
64820;SDS011;51256;55.654;37.264;2022-07-19T14:38:24;3.25;;;1.48;;
64820;SDS011;51256;55.654;37.264;2022-07-19T14:40:49;4.55;;;1.55;;
64820;SDS011;51256;55.654;37.264;2022-07-19T14:43:15;6.50;;;1.48;;
64820;SDS011;51256;55.654;37.264;2022-07-19T14:45:40;4.15;;;1.38;;
64820;SDS011;51256;55.654;37.264;2022-07-19T14:48:05;2.95;;;1.40;;
64820;SDS011;51256;55.654;37.264;2022-07-19T14:50:32;4.90;;;1.40;;
64820;SDS011;51256;55.654;37.264;2022-07-19T14:52:58;1.80;;;1.20;;
64820;SDS011;51256;55.654;37.264;2022-07-19T14:55:23;4.03;;;1.40;;
64820;SDS011;51256;55.654;37.264;2022-07-19T14:57:49;2.10;;;1.30;;
64820;SDS011;51256;55.654;37.264;2022-07-19T15:00:14;2.90;;;1.20;;
64820;SDS011;51256;55.654;37.264;2022-07-19T15:02:40;2.80;;;1.10;;
64820;SDS011;51256;55.654;37.264;2022-07-19T15:05:06;2.10;;;1.17;;
64820;SDS011;51256;55.654;37.264;2022-07-19T15:07:33;3.30;;;0.98;;
64820;SDS011;51256;55.654;37.264;2022-07-19T15:09:58;3.78;;;1.13;;
64820;SDS011;51256;55.654;37.264;2022-07-19T15:12:24;2.70;;;1.00;;